sensor_id;sensor_type;location;lat;lon;timestamp;pressure;altitude;pressure_sealevel;temperature;humidity
58223;BME280;44020;50.890;15.796;2023-06-04T00:02:11;98109.90;;;7.85;54.58
58223;BME280;44020;50.890;15.796;2023-06-04T00:04:38;98109.50;;;7.79;54.39
58223;BME280;44020;50.890;15.796;2023-06-04T00:07:05;98111.48;;;7.72;54.51
58223;BME280;44020;50.890;15.796;2023-06-04T00:09:32;98107.95;;;7.61;54.50
58223;BME280;44020;50.890;15.796;2023-06-04T00:11:59;98108.14;;;7.54;54.63
58223;BME280;44020;50.890;15.796;2023-06-04T00:14:26;98108.60;;;7.49;54.75
58223;BME280;44020;50.890;15.796;2023-06-04T00:16:53;98106.62;;;7.43;54.71
58223;BME280;44020;50.890;15.796;2023-06-04T00:19:20;98104.41;;;7.37;54.41
58223;BME280;44020;50.890;15.796;2023-06-04T00:21:47;98102.64;;;7.30;54.76
58223;BME280;44020;50.890;15.796;2023-06-04T00:24:15;98093.87;;;7.25;55.47
58223;BME280;44020;50.890;15.796;2023-06-04T00:26:43;98099.61;;;7.27;55.50
58223;BME280;44020;50.890;15.796;2023-06-04T00:29:11;98091.09;;;7.25;55.19
58223;BME280;44020;50.890;15.796;2023-06-04T00:31:38;98093.27;;;7.16;55.11
58223;BME280;44020;50.890;15.796;2023-06-04T00:34:05;98096.13;;;7.16;55.42
58223;BME280;44020;50.890;15.796;2023-06-04T00:36:32;98095.67;;;7.18;55.81
58223;BME280;44020;50.890;15.796;2023-06-04T00:38:59;98094.55;;;7.19;55.72
58223;BME280;44020;50.890;15.796;2023-06-04T00:41:27;98090.43;;;7.17;55.44
58223;BME280;44020;50.890;15.796;2023-06-04T00:43:54;98085.02;;;7.12;55.59
58223;BME280;44020;50.890;15.796;2023-06-04T00:46:24;98084.34;;;7.08;55.62
58223;BME280;44020;50.890;15.796;2023-06-04T00:48:52;98084.45;;;7.06;55.96
58223;BME280;44020;50.890;15.796;2023-06-04T00:51:19;98082.39;;;7.01;55.84
58223;BME280;44020;50.890;15.796;2023-06-04T00:53:50;98081.09;;;6.99;56.05
58223;BME280;44020;50.890;15.796;2023-06-04T00:56:17;98077.65;;;6.93;55.78
58223;BME280;44020;50.890;15.796;2023-06-04T00:58:45;98078.72;;;6.90;56.12
58223;BME280;44020;50.890;15.796;2023-06-04T01:03:52;98075.95;;;6.81;55.86
58223;BME280;44020;50.890;15.796;2023-06-04T01:06:25;98076.65;;;6.77;56.16
58223;BME280;44020;50.890;15.796;2023-06-04T01:08:55;98072.55;;;6.74;56.16
58223;BME280;44020;50.890;15.796;2023-06-04T01:11:34;98069.98;;;6.73;56.21
58223;BME280;44020;50.890;15.796;2023-06-04T01:14:02;98068.46;;;6.68;56.06
58223;BME280;44020;50.890;15.796;2023-06-04T01:16:33;98067.45;;;6.57;56.26
58223;BME280;44020;50.890;15.796;2023-06-04T01:19:02;98064.81;;;6.52;56.39
58223;BME280;44020;50.890;15.796;2023-06-04T01:21:31;98063.19;;;6.49;56.31
58223;BME280;44020;50.890;15.796;2023-06-04T01:24:02;98065.15;;;6.45;56.57
58223;BME280;44020;50.890;15.796;2023-06-04T01:26:31;98065.81;;;6.42;56.64
58223;BME280;44020;50.890;15.796;2023-06-04T01:28:58;98066.78;;;6.37;56.44
58223;BME280;44020;50.890;15.796;2023-06-04T01:31:26;98061.30;;;6.37;56.76
58223;BME280;44020;50.890;15.796;2023-06-04T01:33:54;98057.95;;;6.37;56.78
58223;BME280;44020;50.890;15.796;2023-06-04T01:36:21;98058.82;;;6.34;56.54
58223;BME280;44020;50.890;15.796;2023-06-04T01:38:49;98060.92;;;6.26;56.46
58223;BME280;44020;50.890;15.796;2023-06-04T01:41:17;98058.09;;;6.19;56.86
58223;BME280;44020;50.890;15.796;2023-06-04T01:43:44;98059.98;;;6.16;56.98
58223;BME280;44020;50.890;15.796;2023-06-04T01:46:11;98062.13;;;6.16;56.96
58223;BME280;44020;50.890;15.796;2023-06-04T01:48:39;98061.45;;;6.12;57.21
58223;BME280;44020;50.890;15.796;2023-06-04T01:51:07;98059.65;;;6.12;57.63
58223;BME280;44020;50.890;15.796;2023-06-04T01:53:34;98058.77;;;6.12;57.75
58223;BME280;44020;50.890;15.796;2023-06-04T01:56:01;98060.77;;;6.11;57.21
58223;BME280;44020;50.890;15.796;2023-06-04T01:58:28;98062.86;;;6.04;57.41
58223;BME280;44020;50.890;15.796;2023-06-04T02:00:56;98065.10;;;5.97;57.12
58223;BME280;44020;50.890;15.796;2023-06-04T02:03:26;98063.42;;;5.91;57.18
58223;BME280;44020;50.890;15.796;2023-06-04T02:05:54;98068.88;;;5.87;57.42
58223;BME280;44020;50.890;15.796;2023-06-04T02:08:21;98068.44;;;5.85;57.53
58223;BME280;44020;50.890;15.796;2023-06-04T02:10:48;98072.20;;;5.84;57.70
58223;BME280;44020;50.890;15.796;2023-06-04T02:13:15;98073.55;;;5.82;57.76
58223;BME280;44020;50.890;15.796;2023-06-04T02:15:42;98070.91;;;5.77;57.33
58223;BME280;44020;50.890;15.796;2023-06-04T02:18:17;98069.90;;;5.72;57.81
58223;BME280;44020;50.890;15.796;2023-06-04T02:20:45;98071.57;;;5.71;57.78
58223;BME280;44020;50.890;15.796;2023-06-04T02:23:12;98076.96;;;5.64;57.45
58223;BME280;44020;50.890;15.796;2023-06-04T02:25:39;98072.00;;;5.57;57.73
58223;BME280;44020;50.890;15.796;2023-06-04T02:28:06;98068.02;;;5.55;57.87
58223;BME280;44020;50.890;15.796;2023-06-04T02:30:34;98073.13;;;5.51;57.65
58223;BME280;44020;50.890;15.796;2023-06-04T02:33:01;98071.12;;;5.45;57.95
58223;BME280;44020;50.890;15.796;2023-06-04T02:35:28;98070.46;;;5.48;58.54
58223;BME280;44020;50.890;15.796;2023-06-04T02:37:55;98071.45;;;5.49;58.29
58223;BME280;44020;50.890;15.796;2023-06-04T02:40:25;98071.77;;;5.46;58.10
58223;BME280;44020;50.890;15.796;2023-06-04T02:42:52;98072.06;;;5.39;58.01
58223;BME280;44020;50.890;15.796;2023-06-04T02:45:20;98069.29;;;5.38;58.41
58223;BME280;44020;50.890;15.796;2023-06-04T02:47:47;98073.42;;;5.40;58.38
58223;BME280;44020;50.890;15.796;2023-06-04T02:50:14;98075.19;;;5.36;58.38
58223;BME280;44020;50.890;15.796;2023-06-04T02:52:42;98076.62;;;5.36;58.56
58223;BME280;44020;50.890;15.796;2023-06-04T02:55:09;98074.35;;;5.35;58.49
58223;BME280;44020;50.890;15.796;2023-06-04T02:57:39;98073.91;;;5.33;58.57
58223;BME280;44020;50.890;15.796;2023-06-04T03:00:07;98077.02;;;5.31;58.61
58223;BME280;44020;50.890;15.796;2023-06-04T03:02:42;98083.23;;;5.30;58.87
58223;BME280;44020;50.890;15.796;2023-06-04T03:05:10;98079.80;;;5.31;58.74
58223;BME280;44020;50.890;15.796;2023-06-04T03:07:38;98078.61;;;5.30;58.80
58223;BME280;44020;50.890;15.796;2023-06-04T03:10:06;98086.58;;;5.30;58.88
58223;BME280;44020;50.890;15.796;2023-06-04T03:12:34;98089.85;;;5.27;58.75
58223;BME280;44020;50.890;15.796;2023-06-04T03:15:01;98088.33;;;5.26;59.07
58223;BME280;44020;50.890;15.796;2023-06-04T03:17:29;98088.19;;;5.25;58.98
58223;BME280;44020;50.890;15.796;2023-06-04T03:19:58;98084.38;;;5.24;58.74
58223;BME280;44020;50.890;15.796;2023-06-04T03:22:25;98091.43;;;5.19;58.70
58223;BME280;44020;50.890;15.796;2023-06-04T03:24:52;98087.52;;;5.15;59.20
58223;BME280;44020;50.890;15.796;2023-06-04T03:27:19;98093.67;;;5.16;59.20
58223;BME280;44020;50.890;15.796;2023-06-04T03:29:47;98092.70;;;5.10;58.93
58223;BME280;44020;50.890;15.796;2023-06-04T03:32:14;98101.14;;;5.06;58.92
58223;BME280;44020;50.890;15.796;2023-06-04T03:34:43;98100.13;;;5.00;59.09
58223;BME280;44020;50.890;15.796;2023-06-04T03:37:10;98103.67;;;5.00;59.54
58223;BME280;44020;50.890;15.796;2023-06-04T03:39:37;98104.80;;;5.03;59.63
58223;BME280;44020;50.890;15.796;2023-06-04T03:42:04;98104.45;;;5.07;60.01
58223;BME280;44020;50.890;15.796;2023-06-04T03:44:32;98109.23;;;5.10;59.92
58223;BME280;44020;50.890;15.796;2023-06-04T03:46:59;98113.19;;;5.13;60.05
58223;BME280;44020;50.890;15.796;2023-06-04T03:49:26;98108.89;;;5.14;60.10
58223;BME280;44020;50.890;15.796;2023-06-04T03:51:53;98106.55;;;5.15;60.38
58223;BME280;44020;50.890;15.796;2023-06-04T03:54:21;98109.54;;;5.20;60.49
58223;BME280;44020;50.890;15.796;2023-06-04T03:56:48;98108.45;;;5.25;60.45
58223;BME280;44020;50.890;15.796;2023-06-04T03:59:15;98109.60;;;5.27;60.52
58223;BME280;44020;50.890;15.796;2023-06-04T04:01:42;98110.02;;;5.29;60.72
58223;BME280;44020;50.890;15.796;2023-06-04T04:04:09;98114.30;;;5.32;60.88
58223;BME280;44020;50.890;15.796;2023-06-04T04:06:36;98114.50;;;5.36;60.87
58223;BME280;44020;50.890;15.796;2023-06-04T04:09:04;98109.41;;;5.39;60.94
58223;BME280;44020;50.890;15.796;2023-06-04T04:11:32;98107.69;;;5.43;61.07
58223;BME280;44020;50.890;15.796;2023-06-04T04:13:59;98111.63;;;5.45;60.95
58223;BME280;44020;50.890;15.796;2023-06-04T04:16:27;98116.95;;;5.48;61.48
58223;BME280;44020;50.890;15.796;2023-06-04T04:18:54;98119.46;;;5.51;61.66
58223;BME280;44020;50.890;15.796;2023-06-04T04:21:22;98118.73;;;5.56;61.77
58223;BME280;44020;50.890;15.796;2023-06-04T04:23:49;98117.30;;;5.65;61.73
58223;BME280;44020;50.890;15.796;2023-06-04T04:26:18;98112.58;;;5.80;62.02
58223;BME280;44020;50.890;15.796;2023-06-04T04:28:45;98113.27;;;6.04;62.17
58223;BME280;44020;50.890;15.796;2023-06-04T04:31:12;98111.44;;;6.29;61.69
58223;BME280;44020;50.890;15.796;2023-06-04T04:33:39;98107.60;;;6.32;61.37
58223;BME280;44020;50.890;15.796;2023-06-04T04:36:06;98103.04;;;6.35;61.85
58223;BME280;44020;50.890;15.796;2023-06-04T04:38:39;98104.34;;;6.37;61.92
58223;BME280;44020;50.890;15.796;2023-06-04T04:41:07;98102.13;;;6.40;62.10
58223;BME280;44020;50.890;15.796;2023-06-04T04:43:35;98104.42;;;6.43;62.11
58223;BME280;44020;50.890;15.796;2023-06-04T04:46:04;98099.72;;;6.45;62.60
58223;BME280;44020;50.890;15.796;2023-06-04T04:48:31;98101.73;;;6.48;62.57
58223;BME280;44020;50.890;15.796;2023-06-04T04:50:58;98099.77;;;6.52;62.70
58223;BME280;44020;50.890;15.796;2023-06-04T04:53:26;98095.98;;;6.58;63.29
58223;BME280;44020;50.890;15.796;2023-06-04T04:55:54;98099.91;;;6.64;63.28
58223;BME280;44020;50.890;15.796;2023-06-04T04:58:21;98098.46;;;6.68;62.72
58223;BME280;44020;50.890;15.796;2023-06-04T05:00:48;98102.82;;;6.73;63.17
58223;BME280;44020;50.890;15.796;2023-06-04T05:03:15;98106.23;;;6.79;63.38
58223;BME280;44020;50.890;15.796;2023-06-04T05:05:42;98106.14;;;6.84;63.05
58223;BME280;44020;50.890;15.796;2023-06-04T05:08:11;98105.31;;;6.91;63.68
58223;BME280;44020;50.890;15.796;2023-06-04T05:10:38;98106.95;;;6.97;63.45
58223;BME280;44020;50.890;15.796;2023-06-04T05:13:05;98107.15;;;7.04;63.55
58223;BME280;44020;50.890;15.796;2023-06-04T05:15:33;98105.20;;;7.11;63.88
58223;BME280;44020;50.890;15.796;2023-06-04T05:18:00;98105.08;;;7.20;64.10
58223;BME280;44020;50.890;15.796;2023-06-04T05:20:27;98104.51;;;7.28;64.06
58223;BME280;44020;50.890;15.796;2023-06-04T05:22:54;98107.80;;;7.37;64.09
58223;BME280;44020;50.890;15.796;2023-06-04T05:25:22;98109.52;;;7.45;63.90
58223;BME280;44020;50.890;15.796;2023-06-04T05:27:49;98108.43;;;7.52;63.42
58223;BME280;44020;50.890;15.796;2023-06-04T05:30:17;98101.11;;;7.60;63.16
58223;BME280;44020;50.890;15.796;2023-06-04T05:32:44;98100.51;;;7.68;63.24
58223;BME280;44020;50.890;15.796;2023-06-04T05:35:11;98103.23;;;7.78;63.16
58223;BME280;44020;50.890;15.796;2023-06-04T05:37:38;98100.46;;;7.86;62.96
58223;BME280;44020;50.890;15.796;2023-06-04T05:40:07;98094.23;;;7.94;62.88
58223;BME280;44020;50.890;15.796;2023-06-04T05:42:34;98093.34;;;8.04;63.25
58223;BME280;44020;50.890;15.796;2023-06-04T05:45:01;98093.17;;;8.13;62.86
58223;BME280;44020;50.890;15.796;2023-06-04T05:47:28;98096.15;;;8.20;61.69
58223;BME280;44020;50.890;15.796;2023-06-04T05:49:56;98100.84;;;8.28;62.68
58223;BME280;44020;50.890;15.796;2023-06-04T05:52:23;98100.17;;;8.38;62.82
58223;BME280;44020;50.890;15.796;2023-06-04T05:54:50;98107.40;;;8.45;62.60
58223;BME280;44020;50.890;15.796;2023-06-04T05:57:18;98106.60;;;8.53;61.74
58223;BME280;44020;50.890;15.796;2023-06-04T05:59:45;98109.27;;;8.60;62.01
58223;BME280;44020;50.890;15.796;2023-06-04T06:02:12;98109.05;;;8.66;62.20
58223;BME280;44020;50.890;15.796;2023-06-04T06:04:40;98105.77;;;8.75;62.45
58223;BME280;44020;50.890;15.796;2023-06-04T06:07:07;98101.20;;;8.83;62.36
58223;BME280;44020;50.890;15.796;2023-06-04T06:09:34;98104.08;;;8.92;62.13
58223;BME280;44020;50.890;15.796;2023-06-04T06:12:02;98104.29;;;9.01;62.33
58223;BME280;44020;50.890;15.796;2023-06-04T06:14:29;98102.52;;;9.10;62.45
58223;BME280;44020;50.890;15.796;2023-06-04T06:16:56;98105.31;;;9.20;62.22
58223;BME280;44020;50.890;15.796;2023-06-04T06:19:23;98108.31;;;9.29;62.45
58223;BME280;44020;50.890;15.796;2023-06-04T06:21:51;98106.79;;;9.40;62.34
58223;BME280;44020;50.890;15.796;2023-06-04T06:24:18;98111.58;;;9.52;62.47
58223;BME280;44020;50.890;15.796;2023-06-04T06:26:45;98111.73;;;9.64;63.09
58223;BME280;44020;50.890;15.796;2023-06-04T06:29:12;98112.83;;;9.75;63.37
58223;BME280;44020;50.890;15.796;2023-06-04T06:31:39;98116.05;;;9.87;63.28
58223;BME280;44020;50.890;15.796;2023-06-04T06:34:07;98107.58;;;10.00;63.81
58223;BME280;44020;50.890;15.796;2023-06-04T06:36:34;98108.94;;;10.13;63.55
58223;BME280;44020;50.890;15.796;2023-06-04T06:39:01;98109.51;;;10.24;63.30
58223;BME280;44020;50.890;15.796;2023-06-04T06:41:28;98109.58;;;10.35;60.82
58223;BME280;44020;50.890;15.796;2023-06-04T06:43:57;98108.84;;;10.47;60.80
58223;BME280;44020;50.890;15.796;2023-06-04T06:46:24;98111.56;;;10.59;61.04
58223;BME280;44020;50.890;15.796;2023-06-04T06:48:51;98110.94;;;10.72;61.09
58223;BME280;44020;50.890;15.796;2023-06-04T06:51:19;98110.30;;;10.84;61.59
58223;BME280;44020;50.890;15.796;2023-06-04T06:53:48;98111.14;;;10.96;61.35
58223;BME280;44020;50.890;15.796;2023-06-04T06:56:15;98112.45;;;11.09;61.09
58223;BME280;44020;50.890;15.796;2023-06-04T06:58:42;98115.61;;;11.23;61.31
58223;BME280;44020;50.890;15.796;2023-06-04T07:01:10;98115.52;;;11.35;60.84
58223;BME280;44020;50.890;15.796;2023-06-04T07:03:37;98114.30;;;11.48;60.36
58223;BME280;44020;50.890;15.796;2023-06-04T07:06:06;98111.45;;;11.61;60.13
58223;BME280;44020;50.890;15.796;2023-06-04T07:08:33;98108.17;;;11.75;59.70
58223;BME280;44020;50.890;15.796;2023-06-04T07:11:01;98103.52;;;11.89;59.85
58223;BME280;44020;50.890;15.796;2023-06-04T07:13:29;98104.45;;;12.09;59.96
58223;BME280;44020;50.890;15.796;2023-06-04T07:15:59;98101.73;;;12.27;58.80
58223;BME280;44020;50.890;15.796;2023-06-04T07:18:26;98105.46;;;12.45;57.85
58223;BME280;44020;50.890;15.796;2023-06-04T07:20:54;98100.46;;;12.65;57.25
58223;BME280;44020;50.890;15.796;2023-06-04T07:23:21;98100.61;;;12.85;56.14
58223;BME280;44020;50.890;15.796;2023-06-04T07:25:48;98101.39;;;13.06;55.13
58223;BME280;44020;50.890;15.796;2023-06-04T07:28:15;98104.27;;;13.20;54.66
58223;BME280;44020;50.890;15.796;2023-06-04T07:30:44;98107.77;;;13.36;53.46
58223;BME280;44020;50.890;15.796;2023-06-04T07:33:11;98110.48;;;13.52;52.26
58223;BME280;44020;50.890;15.796;2023-06-04T07:35:38;98111.42;;;13.68;51.88
58223;BME280;44020;50.890;15.796;2023-06-04T07:38:05;98106.94;;;13.82;51.47
58223;BME280;44020;50.890;15.796;2023-06-04T07:40:32;98108.36;;;13.91;51.32
58223;BME280;44020;50.890;15.796;2023-06-04T07:42:59;98109.16;;;14.04;51.68
58223;BME280;44020;50.890;15.796;2023-06-04T07:45:26;98108.91;;;14.16;51.88
58223;BME280;44020;50.890;15.796;2023-06-04T07:47:55;98109.00;;;14.26;50.89
58223;BME280;44020;50.890;15.796;2023-06-04T07:50:23;98109.95;;;14.37;49.83
58223;BME280;44020;50.890;15.796;2023-06-04T07:52:50;98109.44;;;14.46;49.89
58223;BME280;44020;50.890;15.796;2023-06-04T07:55:18;98111.54;;;14.53;48.71
58223;BME280;44020;50.890;15.796;2023-06-04T07:57:45;98112.36;;;14.59;48.70
58223;BME280;44020;50.890;15.796;2023-06-04T08:00:13;98109.98;;;14.69;48.88
58223;BME280;44020;50.890;15.796;2023-06-04T08:02:41;98106.97;;;14.79;48.40
58223;BME280;44020;50.890;15.796;2023-06-04T08:05:08;98109.17;;;14.87;47.94
58223;BME280;44020;50.890;15.796;2023-06-04T08:07:36;98113.84;;;14.96;48.30
58223;BME280;44020;50.890;15.796;2023-06-04T08:10:04;98115.79;;;15.07;48.27
58223;BME280;44020;50.890;15.796;2023-06-04T08:12:31;98114.79;;;15.17;48.05
58223;BME280;44020;50.890;15.796;2023-06-04T08:14:58;98115.89;;;15.28;47.76
58223;BME280;44020;50.890;15.796;2023-06-04T08:17:25;98118.58;;;15.36;47.71
58223;BME280;44020;50.890;15.796;2023-06-04T08:19:52;98119.48;;;15.42;47.64
58223;BME280;44020;50.890;15.796;2023-06-04T08:22:19;98119.44;;;15.52;47.39
58223;BME280;44020;50.890;15.796;2023-06-04T08:24:47;98121.97;;;15.60;47.70
58223;BME280;44020;50.890;15.796;2023-06-04T08:27:14;98121.83;;;15.66;47.63
58223;BME280;44020;50.890;15.796;2023-06-04T08:29:41;98119.65;;;15.75;47.66
58223;BME280;44020;50.890;15.796;2023-06-04T08:32:08;98112.18;;;15.87;46.77
58223;BME280;44020;50.890;15.796;2023-06-04T08:34:35;98120.74;;;16.00;46.75
58223;BME280;44020;50.890;15.796;2023-06-04T08:37:04;98121.75;;;16.07;46.26
58223;BME280;44020;50.890;15.796;2023-06-04T08:39:31;98122.97;;;16.12;45.95
58223;BME280;44020;50.890;15.796;2023-06-04T08:42:00;98120.67;;;16.18;45.66
58223;BME280;44020;50.890;15.796;2023-06-04T08:44:30;98118.83;;;16.22;45.12
58223;BME280;44020;50.890;15.796;2023-06-04T08:47:01;98112.05;;;16.28;45.36
58223;BME280;44020;50.890;15.796;2023-06-04T08:49:31;98115.95;;;16.35;45.35
58223;BME280;44020;50.890;15.796;2023-06-04T08:52:01;98115.80;;;16.44;45.57
58223;BME280;44020;50.890;15.796;2023-06-04T08:54:29;98115.64;;;16.53;45.18
58223;BME280;44020;50.890;15.796;2023-06-04T08:56:56;98120.25;;;16.59;45.45
58223;BME280;44020;50.890;15.796;2023-06-04T08:59:27;98120.86;;;16.71;45.73
58223;BME280;44020;50.890;15.796;2023-06-04T09:01:55;98120.87;;;16.81;45.11
58223;BME280;44020;50.890;15.796;2023-06-04T09:04:22;98118.77;;;16.89;45.26
58223;BME280;44020;50.890;15.796;2023-06-04T09:06:51;98126.76;;;16.99;44.94
58223;BME280;44020;50.890;15.796;2023-06-04T09:09:19;98124.27;;;17.09;44.62
58223;BME280;44020;50.890;15.796;2023-06-04T09:11:49;98126.09;;;17.17;43.17
58223;BME280;44020;50.890;15.796;2023-06-04T09:14:18;98119.50;;;17.24;43.46
58223;BME280;44020;50.890;15.796;2023-06-04T09:16:45;98121.97;;;17.33;43.54
58223;BME280;44020;50.890;15.796;2023-06-04T09:19:13;98123.56;;;17.41;43.40
58223;BME280;44020;50.890;15.796;2023-06-04T09:24:21;98121.48;;;17.50;43.13
58223;BME280;44020;50.890;15.796;2023-06-04T09:26:49;98120.77;;;17.58;42.97
58223;BME280;44020;50.890;15.796;2023-06-04T09:29:16;98123.06;;;17.66;43.11
58223;BME280;44020;50.890;15.796;2023-06-04T09:31:44;98123.09;;;17.74;43.12
58223;BME280;44020;50.890;15.796;2023-06-04T09:34:11;98120.23;;;17.79;41.98
58223;BME280;44020;50.890;15.796;2023-06-04T09:36:38;98120.02;;;17.83;42.58
58223;BME280;44020;50.890;15.796;2023-06-04T09:39:18;98123.42;;;17.91;42.35
58223;BME280;44020;50.890;15.796;2023-06-04T09:41:45;98120.95;;;17.98;42.42
58223;BME280;44020;50.890;15.796;2023-06-04T09:44:23;98121.48;;;18.00;42.60
58223;BME280;44020;50.890;15.796;2023-06-04T09:46:54;98121.55;;;18.07;42.81
58223;BME280;44020;50.890;15.796;2023-06-04T09:49:22;98121.23;;;18.18;42.76
58223;BME280;44020;50.890;15.796;2023-06-04T09:51:49;98121.98;;;18.25;42.18
58223;BME280;44020;50.890;15.796;2023-06-04T09:54:17;98125.98;;;18.31;41.78
58223;BME280;44020;50.890;15.796;2023-06-04T09:56:44;98127.11;;;18.36;42.18
58223;BME280;44020;50.890;15.796;2023-06-04T09:59:11;98121.08;;;18.40;42.28
58223;BME280;44020;50.890;15.796;2023-06-04T10:01:40;98117.77;;;18.45;42.60
58223;BME280;44020;50.890;15.796;2023-06-04T10:04:10;98119.15;;;18.51;42.87
58223;BME280;44020;50.890;15.796;2023-06-04T10:06:39;98114.55;;;18.60;42.63
58223;BME280;44020;50.890;15.796;2023-06-04T10:09:10;98115.95;;;18.66;42.71
58223;BME280;44020;50.890;15.796;2023-06-04T10:11:51;98116.16;;;18.75;42.63
58223;BME280;44020;50.890;15.796;2023-06-04T10:14:21;98116.09;;;18.85;42.21
58223;BME280;44020;50.890;15.796;2023-06-04T10:16:50;98116.34;;;18.96;42.50
58223;BME280;44020;50.890;15.796;2023-06-04T10:19:18;98121.50;;;19.07;42.53
58223;BME280;44020;50.890;15.796;2023-06-04T10:21:45;98118.17;;;19.14;41.42
58223;BME280;44020;50.890;15.796;2023-06-04T10:24:12;98122.16;;;19.17;41.83
58223;BME280;44020;50.890;15.796;2023-06-04T10:26:41;98117.48;;;19.22;41.54
58223;BME280;44020;50.890;15.796;2023-06-04T10:29:09;98118.70;;;19.28;41.70
58223;BME280;44020;50.890;15.796;2023-06-04T10:31:37;98119.46;;;19.31;41.62
58223;BME280;44020;50.890;15.796;2023-06-04T10:34:04;98122.88;;;19.35;41.78
58223;BME280;44020;50.890;15.796;2023-06-04T10:36:41;98122.09;;;19.39;41.73
58223;BME280;44020;50.890;15.796;2023-06-04T10:39:08;98121.99;;;19.44;41.48
58223;BME280;44020;50.890;15.796;2023-06-04T10:41:37;98117.81;;;19.48;41.56
58223;BME280;44020;50.890;15.796;2023-06-04T10:44:04;98121.27;;;19.48;40.76
58223;BME280;44020;50.890;15.796;2023-06-04T10:46:38;98123.61;;;19.46;41.18
58223;BME280;44020;50.890;15.796;2023-06-04T10:49:08;98121.34;;;19.52;41.51
58223;BME280;44020;50.890;15.796;2023-06-04T10:51:36;98117.67;;;19.62;41.46
58223;BME280;44020;50.890;15.796;2023-06-04T10:54:07;98121.69;;;19.74;41.08
58223;BME280;44020;50.890;15.796;2023-06-04T10:56:35;98118.63;;;19.83;41.00
58223;BME280;44020;50.890;15.796;2023-06-04T10:59:12;98117.11;;;19.84;41.16
58223;BME280;44020;50.890;15.796;2023-06-04T11:01:40;98119.27;;;19.80;41.08
58223;BME280;44020;50.890;15.796;2023-06-04T11:04:17;98118.00;;;19.85;41.41
58223;BME280;44020;50.890;15.796;2023-06-04T11:06:44;98110.52;;;19.95;40.96
58223;BME280;44020;50.890;15.796;2023-06-04T11:09:13;98112.58;;;20.05;40.68
58223;BME280;44020;50.890;15.796;2023-06-04T11:11:43;98111.42;;;20.13;40.61
58223;BME280;44020;50.890;15.796;2023-06-04T11:14:10;98115.02;;;20.13;40.68
58223;BME280;44020;50.890;15.796;2023-06-04T11:16:41;98110.87;;;20.16;40.51
58223;BME280;44020;50.890;15.796;2023-06-04T11:19:08;98111.83;;;20.19;40.63
58223;BME280;44020;50.890;15.796;2023-06-04T11:21:35;98107.11;;;20.22;40.71
58223;BME280;44020;50.890;15.796;2023-06-04T11:24:05;98102.14;;;20.23;40.43
58223;BME280;44020;50.890;15.796;2023-06-04T11:26:36;98108.77;;;20.25;39.81
58223;BME280;44020;50.890;15.796;2023-06-04T11:29:08;98107.84;;;20.33;39.46
58223;BME280;44020;50.890;15.796;2023-06-04T11:31:45;98104.41;;;20.37;39.22
58223;BME280;44020;50.890;15.796;2023-06-04T11:34:25;98101.66;;;20.37;39.33
58223;BME280;44020;50.890;15.796;2023-06-04T11:36:53;98101.89;;;20.47;38.90
58223;BME280;44020;50.890;15.796;2023-06-04T11:39:33;98100.14;;;20.57;39.12
58223;BME280;44020;50.890;15.796;2023-06-04T11:42:04;98097.77;;;20.68;39.05
58223;BME280;44020;50.890;15.796;2023-06-04T11:44:31;98099.02;;;20.73;39.73
58223;BME280;44020;50.890;15.796;2023-06-04T11:46:58;98097.02;;;20.73;38.89
58223;BME280;44020;50.890;15.796;2023-06-04T11:49:25;98095.27;;;20.78;39.33
58223;BME280;44020;50.890;15.796;2023-06-04T11:51:54;98092.44;;;20.81;39.59
58223;BME280;44020;50.890;15.796;2023-06-04T11:54:21;98090.08;;;20.86;39.59
58223;BME280;44020;50.890;15.796;2023-06-04T11:56:49;98090.89;;;20.87;39.56
58223;BME280;44020;50.890;15.796;2023-06-04T11:59:17;98090.88;;;20.82;39.25
58223;BME280;44020;50.890;15.796;2023-06-04T12:01:45;98090.56;;;20.80;39.15
58223;BME280;44020;50.890;15.796;2023-06-04T12:06:59;98088.02;;;20.95;39.47
58223;BME280;44020;50.890;15.796;2023-06-04T12:09:32;98086.56;;;21.06;39.61
58223;BME280;44020;50.890;15.796;2023-06-04T12:12:02;98087.10;;;21.07;38.98
58223;BME280;44020;50.890;15.796;2023-06-04T12:14:30;98084.61;;;21.12;39.23
58223;BME280;44020;50.890;15.796;2023-06-04T12:16:58;98083.39;;;21.13;39.01
58223;BME280;44020;50.890;15.796;2023-06-04T12:19:25;98082.04;;;21.14;38.98
58223;BME280;44020;50.890;15.796;2023-06-04T12:22:03;98085.20;;;21.21;38.39
58223;BME280;44020;50.890;15.796;2023-06-04T12:24:32;98083.21;;;21.26;38.68
58223;BME280;44020;50.890;15.796;2023-06-04T12:27:05;98082.48;;;21.33;38.38
58223;BME280;44020;50.890;15.796;2023-06-04T12:29:33;98077.74;;;21.38;38.80
58223;BME280;44020;50.890;15.796;2023-06-04T12:32:02;98077.08;;;21.38;38.35
58223;BME280;44020;50.890;15.796;2023-06-04T12:34:31;98078.63;;;21.42;38.49
58223;BME280;44020;50.890;15.796;2023-06-04T12:36:59;98076.10;;;21.47;38.46
58223;BME280;44020;50.890;15.796;2023-06-04T12:39:26;98075.27;;;21.50;38.36
58223;BME280;44020;50.890;15.796;2023-06-04T12:41:53;98074.95;;;21.54;38.39
58223;BME280;44020;50.890;15.796;2023-06-04T12:44:20;98076.98;;;21.59;38.20
58223;BME280;44020;50.890;15.796;2023-06-04T12:46:47;98078.08;;;21.69;38.37
58223;BME280;44020;50.890;15.796;2023-06-04T12:49:14;98080.05;;;21.74;37.86
58223;BME280;44020;50.890;15.796;2023-06-04T12:51:41;98076.59;;;21.76;37.73
58223;BME280;44020;50.890;15.796;2023-06-04T12:54:09;98081.23;;;21.83;37.46
58223;BME280;44020;50.890;15.796;2023-06-04T12:56:38;98076.11;;;21.90;37.46
58223;BME280;44020;50.890;15.796;2023-06-04T12:59:06;98074.13;;;21.96;37.69
58223;BME280;44020;50.890;15.796;2023-06-04T13:01:33;98072.95;;;22.00;37.41
58223;BME280;44020;50.890;15.796;2023-06-04T13:04:01;98075.69;;;22.05;37.83
58223;BME280;44020;50.890;15.796;2023-06-04T13:06:28;98073.86;;;22.05;37.58
58223;BME280;44020;50.890;15.796;2023-06-04T13:08:55;98075.55;;;22.06;37.18